createdAt,value
2023-05-03T00:00:27.478Z,1.27
2023-05-03T00:03:32.836Z,1.58
2023-05-03T00:06:36.469Z,1.17
2023-05-03T00:09:39.575Z,1.33
2023-05-03T00:12:44.431Z,1.52
2023-05-03T00:15:47.917Z,1.75
2023-05-03T00:18:53.212Z,1.50
2023-05-03T00:21:56.738Z,1.20
2023-05-03T00:25:00.433Z,1.53
2023-05-03T00:28:03.567Z,1.20
2023-05-03T00:31:10.279Z,1.38
2023-05-03T00:34:15.249Z,1.27
2023-05-03T00:37:18.689Z,1.58
2023-05-03T00:40:21.748Z,1.05
2023-05-03T00:43:24.926Z,1.27
2023-05-03T00:46:28.086Z,1.65
2023-05-03T00:49:32.701Z,1.63
2023-05-03T00:52:35.873Z,1.60
2023-05-03T00:55:38.872Z,1.60
2023-05-03T00:58:42.008Z,1.42
2023-05-03T01:01:48.974Z,1.60
2023-05-03T01:04:53.740Z,1.52
2023-05-03T01:08:06.934Z,1.48
2023-05-03T01:11:16.804Z,1.35
2023-05-03T01:14:29.560Z,0.93
2023-05-03T01:17:40.017Z,1.30
2023-05-03T01:20:46.501Z,1.77
2023-05-03T01:23:58.467Z,1.25
2023-05-03T01:27:02.861Z,1.75
2023-05-03T01:30:31.432Z,1.70
2023-05-03T01:33:41.871Z,2.13
2023-05-03T01:36:46.120Z,1.40
2023-05-03T01:46:00.293Z,1.40
2023-05-03T01:49:03.681Z,1.45
2023-05-03T01:52:06.681Z,2.10
2023-05-03T01:55:10.700Z,1.88
2023-05-03T01:58:13.682Z,1.30
2023-05-03T02:01:18.199Z,1.60
2023-05-03T02:04:21.338Z,1.60
2023-05-03T02:07:24.612Z,2.08
2023-05-03T02:10:27.781Z,1.60
2023-05-03T02:13:30.716Z,2.00
2023-05-03T02:16:35.264Z,1.20
2023-05-03T02:19:38.316Z,1.38
2023-05-03T02:22:42.964Z,1.67
2023-05-03T02:25:46.100Z,1.38
2023-05-03T02:28:49.189Z,1.20
2023-05-03T02:31:53.858Z,1.50
2023-05-03T02:34:57.216Z,1.17
2023-05-03T02:38:00.401Z,1.80
2023-05-03T02:41:03.573Z,1.75
2023-05-03T02:44:07.174Z,1.60
2023-05-03T02:47:11.615Z,1.60
2023-05-03T02:50:14.616Z,1.20
2023-05-03T02:53:17.819Z,1.48
2023-05-03T02:56:20.883Z,1.20
2023-05-03T02:59:24.121Z,1.15
2023-05-03T03:02:28.682Z,1.15
2023-05-03T03:05:32.658Z,1.13
2023-05-03T03:08:36.864Z,1.58
2023-05-03T03:15:07.475Z,1.15
2023-05-03T03:18:10.718Z,1.30
2023-05-03T03:21:13.810Z,1.60
2023-05-03T03:24:16.829Z,1.73
2023-05-03T03:27:22.268Z,1.90
2023-05-03T03:30:26.819Z,1.77
2023-05-03T03:33:29.936Z,1.90
2023-05-03T03:36:33.080Z,1.55
2023-05-03T03:39:36.721Z,1.77
2023-05-03T03:42:40.393Z,1.90
2023-05-03T03:45:45.164Z,2.05
2023-05-03T03:48:48.179Z,1.58
2023-05-03T03:51:51.433Z,1.30
2023-05-03T03:54:54.602Z,2.07
2023-05-03T03:57:58.804Z,1.83
2023-05-03T04:04:06.354Z,1.58
2023-05-03T04:07:10.447Z,1.23
2023-05-03T04:10:13.645Z,1.58
2023-05-03T04:13:17.099Z,1.73
2023-05-03T04:16:21.663Z,1.80
2023-05-03T04:19:26.359Z,2.05
2023-05-03T04:22:31.070Z,1.63
2023-05-03T04:25:34.104Z,1.55
2023-05-03T04:28:38.883Z,1.88
2023-05-03T04:31:43.502Z,1.42
2023-05-03T04:34:49.061Z,1.77
2023-05-03T04:37:52.923Z,1.80
2023-05-03T04:40:56.360Z,1.67
2023-05-03T04:43:59.827Z,2.17
2023-05-03T04:47:04.575Z,1.97
2023-05-03T04:50:10.999Z,1.77
2023-05-03T04:53:13.999Z,1.80
2023-05-03T04:56:17.343Z,2.50
2023-05-03T04:59:20.515Z,2.20
2023-05-03T05:02:26.441Z,2.13
2023-05-03T05:05:29.896Z,1.92
2023-05-03T05:08:32.988Z,2.00
2023-05-03T05:11:36.075Z,3.22
2023-05-03T05:14:39.214Z,2.42
2023-05-03T05:17:44.347Z,1.98
2023-05-03T05:20:47.648Z,2.13
2023-05-03T05:23:51.203Z,2.80
2023-05-03T05:26:54.901Z,1.70
2023-05-03T05:29:58.206Z,2.28
2023-05-03T05:33:03.189Z,2.67
2023-05-03T05:36:07.141Z,2.15
2023-05-03T05:39:10.422Z,2.38
2023-05-03T05:42:13.822Z,1.83
2023-05-03T05:45:16.895Z,2.37
2023-05-03T05:48:21.335Z,1.73
2023-05-03T05:51:24.408Z,1.95
2023-05-03T05:54:28.621Z,2.10
2023-05-03T05:57:33.484Z,2.50
2023-05-03T06:00:36.953Z,2.42
2023-05-03T06:03:41.912Z,2.70
2023-05-03T06:06:45.087Z,2.08
2023-05-03T06:09:48.675Z,2.00
2023-05-03T06:12:51.901Z,1.85
2023-05-03T06:15:55.058Z,1.95
2023-05-03T06:18:59.470Z,2.00
2023-05-03T06:22:03.211Z,2.08
2023-05-03T06:25:07.685Z,2.33
2023-05-03T06:28:10.916Z,2.60
2023-05-03T06:31:14.219Z,2.40
2023-05-03T06:34:21.662Z,3.27
2023-05-03T06:37:24.759Z,2.20
2023-05-03T06:40:27.917Z,2.53
2023-05-03T06:43:31.058Z,2.20
2023-05-03T06:46:34.351Z,2.45
2023-05-03T06:49:39.123Z,2.87
2023-05-03T06:52:42.922Z,2.28
2023-05-03T06:55:46.452Z,2.25
2023-05-03T06:58:49.682Z,2.08
2023-05-03T07:01:53.551Z,2.00
2023-05-03T07:04:58.160Z,1.75
2023-05-03T07:08:01.147Z,2.40
2023-05-03T07:11:04.902Z,2.33
2023-05-03T07:14:07.951Z,1.70
2023-05-03T07:17:12.295Z,1.77
2023-05-03T07:20:16.654Z,2.75
2023-05-03T07:23:20.187Z,1.58
2023-05-03T07:26:23.407Z,2.10
2023-05-03T07:29:27.512Z,2.00
2023-05-03T07:32:31.220Z,1.88
2023-05-03T07:35:35.661Z,1.90
2023-05-03T07:38:38.798Z,1.52
2023-05-03T07:41:41.889Z,1.98
2023-05-03T07:44:44.928Z,2.20
2023-05-03T07:47:48.699Z,3.40
2023-05-03T07:50:53.233Z,2.40
2023-05-03T07:53:56.572Z,1.90
2023-05-03T07:56:59.631Z,1.87
2023-05-03T08:00:04.595Z,1.90
2023-05-03T08:03:08.198Z,1.80
2023-05-03T08:06:13.223Z,1.52
2023-05-03T08:09:16.324Z,1.65
2023-05-03T08:12:19.314Z,1.88
2023-05-03T08:15:22.280Z,1.60
2023-05-03T08:18:25.634Z,2.53
2023-05-03T08:21:50.358Z,2.50
2023-05-03T08:24:53.687Z,2.28
2023-05-03T08:27:57.331Z,1.50
2023-05-03T08:31:03.445Z,1.47
2023-05-03T08:34:07.829Z,1.42
2023-05-03T08:40:16.656Z,1.75
2023-05-03T08:43:21.812Z,1.98
2023-05-03T08:46:26.926Z,1.70
2023-05-03T08:49:31.644Z,1.20
2023-05-03T08:52:36.669Z,1.40
2023-05-03T08:55:40.190Z,1.70
2023-05-03T08:58:43.798Z,1.52
2023-05-03T09:01:47.276Z,1.33
2023-05-03T09:04:50.500Z,1.70
2023-05-03T09:08:03.798Z,1.42
2023-05-03T09:11:07.105Z,1.17
2023-05-03T09:14:11.399Z,1.70
2023-05-03T09:17:16.124Z,1.23
2023-05-03T09:20:36.950Z,1.05
2023-05-03T09:23:42.649Z,1.52
2023-05-03T09:26:47.206Z,1.25
2023-05-03T09:29:50.913Z,1.35
2023-05-03T09:32:54.140Z,1.48
2023-05-03T09:35:58.679Z,1.10
2023-05-03T09:39:18.164Z,1.30
2023-05-03T09:42:21.233Z,0.98
2023-05-03T09:45:25.224Z,1.85
2023-05-03T09:48:29.125Z,1.48
2023-05-03T09:51:32.892Z,1.35
2023-05-03T09:54:38.041Z,1.27
2023-05-03T09:57:42.398Z,1.45
2023-05-03T10:03:51.135Z,1.30
2023-05-03T10:07:00.324Z,1.33
2023-05-03T10:10:05.202Z,1.98
2023-05-03T10:13:10.261Z,1.42
2023-05-03T10:16:18.660Z,1.42
2023-05-03T10:19:28.600Z,1.50
2023-05-03T10:22:31.756Z,1.80
2023-05-03T10:25:37.987Z,1.23
2023-05-03T10:28:41.377Z,1.35
2023-05-03T10:31:46.489Z,1.57
2023-05-03T10:34:58.182Z,1.65
2023-05-03T10:38:15.411Z,1.50
2023-05-03T10:41:27.225Z,1.42
2023-05-03T10:44:39.329Z,1.48
2023-05-03T10:47:43.747Z,1.58
2023-05-03T10:50:47.780Z,1.40
2023-05-03T10:53:51.492Z,1.92
2023-05-03T10:56:57.442Z,0.90
2023-05-03T11:00:02.386Z,1.48
2023-05-03T11:03:13.793Z,1.35
2023-05-03T11:06:34.329Z,1.45
2023-05-03T11:09:37.642Z,1.30
2023-05-03T11:13:04.084Z,1.60
2023-05-03T11:16:08.164Z,1.48
2023-05-03T11:19:11.814Z,1.83
2023-05-03T11:22:15.167Z,1.27
2023-05-03T11:25:18.292Z,1.63
2023-05-03T11:28:22.712Z,1.02
2023-05-03T11:31:26.741Z,1.40
2023-05-03T11:34:29.853Z,1.42
2023-05-03T11:37:33.273Z,1.65
2023-05-03T11:40:39.117Z,1.63
2023-05-03T11:43:44.409Z,1.05
2023-05-03T11:46:48.758Z,1.33
2023-05-03T11:49:54.406Z,1.27
2023-05-03T11:52:58.420Z,1.50
2023-05-03T11:56:03.149Z,1.52
2023-05-03T11:59:07.557Z,1.50
2023-05-03T12:02:13.868Z,1.08
2023-05-03T12:05:18.326Z,1.20
2023-05-03T12:08:23.314Z,1.08
2023-05-03T12:11:31.361Z,1.63
2023-05-03T12:15:00.577Z,1.15
2023-05-03T12:18:08.509Z,1.00
2023-05-03T12:24:24.587Z,1.38
2023-05-03T12:27:28.331Z,1.42
2023-05-03T12:30:33.967Z,1.50
2023-05-03T12:33:38.832Z,1.00
2023-05-03T12:36:43.792Z,1.10
2023-05-03T12:39:52.278Z,1.35
2023-05-03T12:43:06.618Z,1.25
2023-05-03T12:49:22.887Z,1.60
2023-05-03T12:55:35.477Z,0.82
2023-05-03T12:59:07.487Z,0.70
2023-05-03T13:08:25.380Z,1.63
2023-05-03T13:11:34.711Z,1.17
2023-05-03T13:14:38.664Z,1.20
2023-05-03T13:17:46.976Z,1.48
2023-05-03T13:20:51.721Z,1.17
2023-05-03T13:26:57.823Z,0.90
2023-05-03T13:30:02.649Z,1.33
2023-05-03T13:33:08.219Z,1.10
2023-05-03T13:36:11.598Z,1.50
2023-05-03T13:39:14.666Z,0.77
2023-05-03T13:42:17.780Z,1.10
2023-05-03T13:45:21.269Z,1.20
2023-05-03T13:48:26.448Z,0.90
2023-05-03T13:51:29.467Z,1.30
2023-05-03T13:54:32.577Z,1.50
2023-05-03T13:57:35.557Z,1.05
2023-05-03T14:00:38.589Z,1.50
2023-05-03T14:03:44.393Z,1.40
2023-05-03T14:06:47.618Z,1.00
2023-05-03T14:09:50.709Z,1.38
2023-05-03T14:12:54.077Z,1.70
2023-05-03T14:15:57.474Z,1.10
2023-05-03T14:19:01.996Z,1.50
2023-05-03T14:22:05.114Z,1.08
2023-05-03T14:25:09.446Z,0.85
2023-05-03T14:28:12.486Z,1.20
2023-05-03T14:31:16.346Z,1.40
2023-05-03T14:34:20.868Z,1.40
2023-05-03T14:37:24.221Z,1.00
2023-05-03T14:40:27.284Z,1.83
2023-05-03T14:43:30.240Z,1.13
2023-05-03T14:46:58.647Z,1.27
2023-05-03T14:50:02.161Z,0.90
2023-05-03T14:53:05.954Z,0.95
2023-05-03T14:56:08.999Z,0.90
2023-05-03T14:59:11.997Z,1.25
2023-05-03T15:02:16.588Z,1.05
2023-05-03T15:05:19.942Z,0.95
2023-05-03T15:08:22.966Z,1.43
2023-05-03T15:11:26.306Z,1.00
2023-05-03T15:14:29.407Z,1.08
2023-05-03T15:17:33.803Z,1.05
2023-05-03T15:20:37.286Z,1.00
2023-05-03T15:23:41.777Z,1.00
2023-05-03T15:26:45.075Z,1.30
2023-05-03T15:29:48.062Z,1.07
2023-05-03T15:32:53.286Z,0.77
2023-05-03T15:35:57.146Z,0.90
2023-05-03T15:39:00.904Z,1.10
2023-05-03T15:42:04.171Z,1.15
2023-05-03T15:45:09.409Z,1.10
2023-05-03T15:48:14.109Z,1.38
2023-05-03T15:51:17.154Z,1.40
2023-05-03T15:54:20.461Z,1.00
2023-05-03T15:57:24.848Z,1.23
2023-05-03T16:00:28.323Z,0.63
2023-05-03T16:03:32.745Z,0.80
2023-05-03T16:06:35.897Z,0.80
2023-05-03T16:09:38.899Z,0.80
2023-05-03T16:12:42.915Z,1.33
2023-05-03T16:15:46.640Z,1.10
2023-05-03T16:18:51.300Z,1.07
2023-05-03T16:21:54.453Z,0.85
2023-05-03T16:24:57.560Z,0.68
2023-05-03T16:28:00.854Z,0.65
2023-05-03T16:31:04.025Z,0.80
2023-05-03T16:34:08.953Z,0.80
2023-05-03T16:37:12.078Z,1.20
2023-05-03T16:40:15.403Z,0.80
2023-05-03T16:43:18.659Z,0.70
2023-05-03T16:46:22.716Z,0.90
2023-05-03T16:52:30.482Z,1.02
2023-05-03T16:55:33.564Z,1.00
2023-05-03T16:58:36.569Z,0.93
2023-05-03T17:01:39.711Z,1.17
2023-05-03T17:04:44.157Z,0.90
2023-05-03T17:07:47.177Z,0.95
2023-05-03T17:10:50.533Z,0.73
2023-05-03T17:13:53.952Z,0.70
2023-05-03T17:16:57.039Z,0.70
2023-05-03T17:20:01.511Z,0.82
2023-05-03T17:23:04.568Z,0.60
2023-05-03T17:26:09.249Z,0.90
2023-05-03T17:29:13.184Z,0.52
2023-05-03T17:32:17.240Z,0.77
2023-05-03T17:35:21.699Z,0.87
2023-05-03T17:38:24.729Z,1.00
2023-05-03T17:41:27.911Z,0.90
2023-05-03T17:44:31.060Z,1.15
2023-05-03T17:47:34.118Z,0.93
2023-05-03T17:50:38.764Z,0.82
2023-05-03T17:53:42.811Z,0.80
2023-05-03T17:56:46.366Z,0.75
2023-05-03T17:59:49.720Z,0.98
2023-05-03T18:02:52.977Z,0.80
2023-05-03T18:05:57.459Z,0.83
2023-05-03T18:09:01.097Z,0.90
2023-05-03T18:12:04.592Z,0.75
2023-05-03T18:15:09.467Z,0.90
2023-05-03T18:18:13.440Z,1.10
2023-05-03T18:21:18.563Z,1.08
2023-05-03T18:24:22.632Z,1.10
2023-05-03T18:27:25.705Z,0.50
2023-05-03T18:30:29.408Z,0.90
2023-05-03T18:33:34.162Z,0.70
2023-05-03T18:36:38.638Z,0.85
2023-05-03T18:39:42.688Z,0.90
2023-05-03T18:42:45.692Z,1.20
2023-05-03T18:45:48.725Z,1.30
2023-05-03T18:48:52.060Z,0.90
2023-05-03T18:51:56.433Z,1.07
2023-05-03T18:54:59.630Z,0.93
2023-05-03T18:58:03.684Z,1.52
2023-05-03T19:01:07.004Z,0.95
2023-05-03T19:04:10.207Z,1.13
2023-05-03T19:07:14.652Z,1.27
2023-05-03T19:10:19.704Z,1.20
2023-05-03T19:13:23.147Z,1.33
2023-05-03T19:16:26.309Z,1.07
2023-05-03T19:19:29.390Z,1.02
2023-05-03T19:22:33.918Z,1.50
2023-05-03T19:25:36.921Z,1.42
2023-05-03T19:28:39.933Z,1.27
2023-05-03T19:31:43.052Z,1.40
2023-05-03T19:34:46.081Z,1.65
2023-05-03T19:37:50.399Z,1.90
2023-05-03T19:40:57.188Z,1.90
2023-05-03T19:44:00.374Z,2.00
2023-05-03T19:47:03.850Z,1.67
2023-05-03T19:50:08.058Z,1.73
2023-05-03T19:56:15.898Z,1.83
2023-05-03T19:59:19.170Z,1.53
2023-05-03T20:02:24.262Z,1.88
2023-05-03T20:05:28.457Z,1.95
2023-05-03T20:08:33.178Z,1.80
2023-05-03T20:11:36.239Z,1.63
2023-05-03T20:14:39.455Z,2.10
2023-05-03T20:17:42.718Z,1.70
2023-05-03T20:20:45.980Z,1.47
2023-05-03T20:23:51.134Z,1.30
2023-05-03T20:26:54.419Z,1.40
2023-05-03T20:29:57.824Z,1.40
2023-05-03T20:33:01.005Z,2.00
2023-05-03T20:36:04.962Z,1.48
2023-05-03T20:39:09.729Z,2.08
2023-05-03T20:42:12.845Z,2.50
2023-05-03T20:45:16.331Z,2.40
2023-05-03T20:48:20.416Z,3.33
2023-05-03T20:54:27.906Z,1.80
2023-05-03T20:57:32.082Z,1.50
2023-05-03T21:00:35.374Z,1.40
2023-05-03T21:03:38.402Z,2.17
2023-05-03T21:06:44.873Z,1.92
2023-05-03T21:09:49.868Z,1.90
2023-05-03T21:12:53.072Z,1.63
2023-05-03T21:15:56.886Z,1.50
2023-05-03T21:19:00.450Z,1.48
2023-05-03T21:22:03.695Z,1.67
2023-05-03T21:25:09.216Z,1.42
2023-05-03T21:28:13.170Z,1.40
2023-05-03T21:31:17.097Z,1.50
2023-05-03T21:34:20.244Z,2.17
2023-05-03T21:37:23.312Z,2.13
2023-05-03T21:40:28.187Z,2.10
2023-05-03T21:43:31.445Z,1.80
2023-05-03T21:46:34.591Z,1.92
2023-05-03T21:49:37.663Z,2.03
2023-05-03T21:52:41.160Z,1.85
2023-05-03T21:55:46.823Z,1.92
2023-05-03T21:58:49.825Z,1.33
2023-05-03T22:01:53.040Z,1.45
2023-05-03T22:04:56.244Z,2.25
2023-05-03T22:07:59.324Z,1.90
2023-05-03T22:11:07.180Z,1.85
2023-05-03T22:14:10.382Z,1.65
2023-05-03T22:17:13.617Z,1.92
2023-05-03T22:20:17.886Z,2.40
2023-05-03T22:26:25.255Z,2.50
2023-05-03T22:29:28.552Z,1.98
2023-05-03T22:32:31.593Z,1.60
2023-05-03T22:35:34.690Z,1.77
2023-05-03T22:38:37.786Z,1.77
2023-05-03T22:41:42.499Z,2.03
2023-05-03T22:44:45.835Z,2.10
2023-05-03T22:47:50.237Z,2.00
2023-05-03T22:50:53.415Z,1.48
2023-05-03T22:53:56.564Z,1.63
2023-05-03T22:57:01.146Z,1.67
2023-05-03T23:00:05.204Z,1.92
2023-05-03T23:03:08.874Z,1.33
2023-05-03T23:06:12.148Z,2.15
2023-05-03T23:09:15.236Z,1.42
2023-05-03T23:12:19.938Z,1.88
2023-05-03T23:15:23.349Z,1.60
2023-05-03T23:18:27.076Z,1.63
2023-05-03T23:21:30.156Z,1.60
2023-05-03T23:24:34.668Z,2.10
2023-05-03T23:27:39.129Z,1.70
2023-05-03T23:31:04.621Z,1.48
2023-05-03T23:34:08.235Z,1.30
2023-05-03T23:37:11.326Z,1.67
2023-05-03T23:40:14.626Z,1.63
2023-05-03T23:43:17.920Z,1.70
2023-05-03T23:46:22.359Z,1.73
2023-05-03T23:49:25.663Z,1.80
2023-05-03T23:52:28.923Z,2.00
2023-05-03T23:55:32.014Z,1.33
2023-05-03T23:58:35.061Z,1.90
